• Join FlightAware (Why Join?)
  • Login
  • US Flag 
12:30AM EDT


 

Airport Tracker/Info


-or-


 

Live Flight TrackerFlight Track Log ✈ FLG3776 ✈ 16-Jun-2013 ✈ KMSP - KAZO

Flight Track Log - Related Links

Times and Time Zones

All times are in EDT time to prevent confusion due to time zone crossing. See the FLG3776 flight status page for this flight to view local times or setup timezone preferences in your user account.

Time Position Orientation Groundspeed Altitude Reporting Facility
EDT Latitude Longitude Course Direction KTS MPH feet Rate Location/Type
09:56PM 44.8667 -93.1833 117° Southeast 161 185 1,500  Level Minneapolis TRACON
09:57PM 44.8500 -93.1167 109° East 220 253 2,800 1,320 Climbing Minneapolis TRACON
09:58PM 44.7403 -92.7504 110° East  Level Estimated
09:58PM 44.8186 -93.0408 120° Southeast 243 280 4,400  Level Minneapolis Center
09:59PM 44.6927 -92.5938 118° Southeast  Level Estimated
09:59PM 44.7700 -92.8900 114° Southeast 310 357 7,100  Level Minneapolis Center
10:00PM 44.6449 -92.4375 115° Southeast  Level Estimated
10:00PM 44.7347 -92.7772 114° Southeast 316 364 9,700  Level Minneapolis Center
10:01PM 44.5808 -92.2845 117° Southeast  Level FlightAware Approximate
10:01PM 44.6981 -92.6583 113° Southeast 335 386 11,500  Level Minneapolis Center
10:02PM 44.6564 -92.5261 114° Southeast 371 427 13,000 1,440 Climbing Minneapolis Center
10:03PM 44.6064 -92.3903 117° Southeast 391 450 14,500 1,440 Climbing Minneapolis Center
10:04PM 44.5522 -92.2544 119° Southeast 400 460 16,000 1,440 Climbing Minneapolis Center
10:05PM 44.4981 -92.1136 118° Southeast 409 471 17,500 1,500 Climbing Minneapolis Center
10:06PM 44.4433 -91.9711 118° Southeast 414 476 19,100 1,620 Climbing Minneapolis Center
10:07PM 44.3761 -91.8011 119° Southeast 417 480 20,900 1,380 Climbing Minneapolis Center
10:08PM 44.3197 -91.6569 119° Southeast 423 487 22,000 1,020 Climbing Minneapolis Center
10:09PM 44.2625 -91.5089 118° Southeast 430 495 23,000 960 Climbing Minneapolis Center
10:10PM 44.2017 -91.3625 120° Southeast 434 499 24,000 960 Climbing Minneapolis Center
10:11PM 44.1444 -91.2111 118° Southeast 439 505 25,000 960 Climbing Minneapolis Center
10:12PM 44.0850 -91.0606 119° Southeast 442 509 26,000 780 Climbing Minneapolis Center
10:13PM 44.0247 -90.9125 119° Southeast 444 511 26,600 480 Climbing Minneapolis Center
10:14PM 43.9628 -90.7589 119° Southeast 453 521 27,100 480 Climbing Minneapolis Center
10:15PM 43.8972 -90.6028 120° Southeast 468 539 27,600 480 Climbing Chicago Center
10:16PM 43.8336 -90.4447 119° Southeast 473 544 28,100 480 Climbing Chicago Center
10:17PM 43.7625 -90.2461 116° Southeast 481 554 28,700 480 Climbing Minneapolis Center
10:18PM 43.7094 -90.0561 111° Southeast 486 559 29,200 480 Climbing Minneapolis Center
10:19PM 43.6650 -89.9125 113° Southeast 488 562 29,700 480 Climbing Chicago Center
10:20PM 43.6122 -89.7397 113° Southeast 488 562 30,200 480 Climbing Chicago Center
10:21PM 43.5597 -89.5675 113° Southeast 488 562 30,700 360 Climbing Chicago Center
10:22PM 43.5072 -89.3958 113° Southeast 487 560 31,000 120 Climbing Chicago Center
10:23PM 43.4533 -89.2208 113° Southeast 495 570 31,000  Level Chicago Center
10:24PM 43.3978 -89.0447 113° Southeast 501 577 31,000  Level Chicago Center
10:25PM 43.3325 -88.8372 113° Southeast 508 585 31,000  Level Chicago Center
10:26PM 43.2761 -88.6606 114° Southeast 512 589 31,000  Level Chicago Center
10:28PM 43.2194 -88.4817 113° Southeast 519 597 31,000  Level Chicago Center
10:29PM 43.1631 -88.3019 113° Southeast 520 598 31,000 -360 Level Chicago Center
10:30PM 43.1056 -88.1236 114° Southeast 517 595 30,300 -840 Descending Chicago Center
10:31PM 43.0464 -87.9411 114° Southeast 523 602 29,300 -1,020 Descending Chicago Center
10:32PM 42.9875 -87.7611 114° Southeast 519 597 28,300 -1,080 Descending Chicago Center
10:33PM 42.9200 -87.5567 114° Southeast 508 585 27,200 -1,200 Descending Chicago Center
10:34PM 42.8622 -87.3811 114° Southeast 507 583 25,900 -1,320 Descending Chicago Center
10:35PM 42.8119 -87.2319 115° Southeast 500 575 24,600 -1,380 Descending Chicago Center
10:36PM 42.7556 -87.0636 114° Southeast 492 566 23,100 -1,320 Descending Chicago Center
10:37PM 42.7017 -86.9033 115° Southeast 474 545 22,000 -600 Descending Chicago Center
10:38PM 42.6392 -86.7192 115° Southeast 453 521 22,000 -600 Level Chicago Center
10:39PM 42.5853 -86.5644 115° Southeast 455 524 20,800 -1,380 Descending Chicago Center
10:40PM 42.5331 -86.4094 115° Southeast 456 525 19,200 -1,860 Descending Chicago Center
10:41PM 42.4825 -86.2650 115° Southeast 434 499 17,000 -2,220 Descending Chicago Center
10:42PM 42.4342 -86.1253 115° Southeast 418 481 14,700 -2,280 Descending Chicago Center
10:43PM 42.3869 -85.9897 115° Southeast 404 465 12,400 -1,860 Descending Chicago Center
10:44PM 42.3811 -85.8572 93° East 362 417 11,000 -1,500 Descending Chicago Center
10:45PM 42.3883 -85.7447 85° East 314 361 9,400 -1,800 Descending Chicago Center
10:46PM 42.4067 -85.6483 76° East 284 327 7,400 -2,280 Descending Chicago Center
10:47PM 42.4356 -85.5444 69° East 270 311 4,800 -1,860 Descending Chicago Center
10:48PM 42.3783 -85.5333 172° South 227 261 3,700 -1,140 Descending Chicago Center
10:49PM 42.3289 -85.5539 197° South 196 226 2,500 -960 Descending Chicago Center
10:50PM 42.2908 -85.5622 189° South 148 170 1,800 -660 Descending Chicago Center
10:51PM 42.2556 -85.5575 174° South 142 163 1,200 -420 Descending Chicago Center
10:52PM 42.2164 -85.5481 170° South 142 163 1,000 -240 Descending Chicago Center